sensor_id;sensor_type;location;lat;lon;timestamp;pressure;altitude;pressure_sealevel;temperature;humidity
8717;BME280;4395;48.554;8.820;2024-01-25T00:01:23;97064.22;;;8.01;70.04
8717;BME280;4395;48.554;8.820;2024-01-25T00:03:26;97061.41;;;8.02;70.00
8717;BME280;4395;48.554;8.820;2024-01-25T00:05:30;97058.81;;;8.02;70.42
8717;BME280;4395;48.554;8.820;2024-01-25T00:07:33;97048.66;;;8.01;70.76
8717;BME280;4395;48.554;8.820;2024-01-25T00:09:36;97065.41;;;8.05;69.99
8717;BME280;4395;48.554;8.820;2024-01-25T00:11:38;97057.03;;;8.03;70.26
8717;BME280;4395;48.554;8.820;2024-01-25T00:13:41;97059.00;;;8.07;69.60
8717;BME280;4395;48.554;8.820;2024-01-25T00:15:43;97076.94;;;8.09;69.77
8717;BME280;4395;48.554;8.820;2024-01-25T00:17:46;97061.16;;;8.10;69.92
8717;BME280;4395;48.554;8.820;2024-01-25T00:19:48;97067.72;;;8.13;69.94
8717;BME280;4395;48.554;8.820;2024-01-25T00:21:52;97069.72;;;8.11;70.24
8717;BME280;4395;48.554;8.820;2024-01-25T00:23:55;97068.72;;;8.12;70.15
8717;BME280;4395;48.554;8.820;2024-01-25T00:25:57;97068.13;;;8.10;70.55
8717;BME280;4395;48.554;8.820;2024-01-25T00:28:01;97074.13;;;8.10;71.01
8717;BME280;4395;48.554;8.820;2024-01-25T00:30:05;97056.41;;;8.07;71.48
8717;BME280;4395;48.554;8.820;2024-01-25T00:32:08;97059.00;;;8.07;71.51
8717;BME280;4395;48.554;8.820;2024-01-25T00:34:11;97047.44;;;8.03;71.66
8717;BME280;4395;48.554;8.820;2024-01-25T00:36:15;97033.69;;;8.03;71.96
8717;BME280;4395;48.554;8.820;2024-01-25T00:38:20;97027.91;;;8.01;72.01
8717;BME280;4395;48.554;8.820;2024-01-25T00:40:23;97050.44;;;8.00;71.46
8717;BME280;4395;48.554;8.820;2024-01-25T00:42:27;97050.25;;;8.02;71.37
8717;BME280;4395;48.554;8.820;2024-01-25T00:44:31;97053.44;;;8.04;70.96
8717;BME280;4395;48.554;8.820;2024-01-25T00:46:34;97045.81;;;8.09;70.17
8717;BME280;4395;48.554;8.820;2024-01-25T00:48:37;97046.22;;;8.06;70.25
8717;BME280;4395;48.554;8.820;2024-01-25T00:50:40;97049.97;;;8.10;70.23
8717;BME280;4395;48.554;8.820;2024-01-25T00:52:43;97042.63;;;8.07;70.22
8717;BME280;4395;48.554;8.820;2024-01-25T00:54:48;97051.00;;;8.09;70.23
8717;BME280;4395;48.554;8.820;2024-01-25T00:56:52;97045.38;;;8.12;70.41
8717;BME280;4395;48.554;8.820;2024-01-25T00:58:54;97043.78;;;8.11;70.34
8717;BME280;4395;48.554;8.820;2024-01-25T01:00:58;97050.56;;;8.12;70.45
8717;BME280;4395;48.554;8.820;2024-01-25T01:03:03;97059.94;;;8.13;70.54
8717;BME280;4395;48.554;8.820;2024-01-25T01:05:07;97055.94;;;8.17;70.59
8717;BME280;4395;48.554;8.820;2024-01-25T01:07:11;97048.97;;;8.17;70.51
8717;BME280;4395;48.554;8.820;2024-01-25T01:09:14;97048.97;;;8.11;71.18
8717;BME280;4395;48.554;8.820;2024-01-25T01:11:18;97053.00;;;8.07;71.38
8717;BME280;4395;48.554;8.820;2024-01-25T01:13:21;97040.63;;;8.09;71.59
8717;BME280;4395;48.554;8.820;2024-01-25T01:15:24;97035.44;;;8.09;71.94
8717;BME280;4395;48.554;8.820;2024-01-25T01:17:27;97053.38;;;8.10;72.14
8717;BME280;4395;48.554;8.820;2024-01-25T01:19:30;97055.75;;;8.12;72.27
8717;BME280;4395;48.554;8.820;2024-01-25T01:21:33;97050.38;;;8.13;72.53
8717;BME280;4395;48.554;8.820;2024-01-25T01:23:36;97056.56;;;8.12;72.51
8717;BME280;4395;48.554;8.820;2024-01-25T01:25:38;97065.13;;;8.13;72.53
8717;BME280;4395;48.554;8.820;2024-01-25T01:27:42;97071.13;;;8.13;72.40
8717;BME280;4395;48.554;8.820;2024-01-25T01:29:45;97071.31;;;8.12;72.42
8717;BME280;4395;48.554;8.820;2024-01-25T01:31:48;97074.50;;;8.14;72.58
8717;BME280;4395;48.554;8.820;2024-01-25T01:33:51;97069.91;;;8.16;72.49
8717;BME280;4395;48.554;8.820;2024-01-25T01:35:53;97072.09;;;8.19;72.52
8717;BME280;4395;48.554;8.820;2024-01-25T01:37:56;97071.66;;;8.22;72.23
8717;BME280;4395;48.554;8.820;2024-01-25T01:39:58;97065.47;;;8.23;72.16
8717;BME280;4395;48.554;8.820;2024-01-25T01:42:01;97071.84;;;8.27;72.39
8717;BME280;4395;48.554;8.820;2024-01-25T01:44:06;97050.91;;;8.22;72.84
8717;BME280;4395;48.554;8.820;2024-01-25T01:46:10;97054.53;;;8.21;73.17
8717;BME280;4395;48.554;8.820;2024-01-25T01:48:13;97049.75;;;8.18;73.40
8717;BME280;4395;48.554;8.820;2024-01-25T01:50:17;97038.56;;;8.17;73.79
8717;BME280;4395;48.554;8.820;2024-01-25T01:52:20;97042.97;;;8.17;74.26
8717;BME280;4395;48.554;8.820;2024-01-25T01:54:24;97051.00;;;8.09;74.79
8717;BME280;4395;48.554;8.820;2024-01-25T01:56:28;97056.63;;;7.99;75.55
8717;BME280;4395;48.554;8.820;2024-01-25T01:58:31;97051.09;;;7.95;76.05
8717;BME280;4395;48.554;8.820;2024-01-25T02:00:37;97056.69;;;7.92;76.47
8717;BME280;4395;48.554;8.820;2024-01-25T02:02:42;97038.94;;;7.89;76.82
8717;BME280;4395;48.554;8.820;2024-01-25T02:04:44;97037.19;;;7.83;76.81
8717;BME280;4395;48.554;8.820;2024-01-25T02:06:47;97025.22;;;7.82;77.08
8717;BME280;4395;48.554;8.820;2024-01-25T02:08:50;97022.44;;;7.77;77.13
8717;BME280;4395;48.554;8.820;2024-01-25T02:10:54;97032.41;;;7.80;77.42
8717;BME280;4395;48.554;8.820;2024-01-25T02:12:57;97050.34;;;7.82;77.43
8717;BME280;4395;48.554;8.820;2024-01-25T02:15:00;97040.00;;;7.75;77.61
8717;BME280;4395;48.554;8.820;2024-01-25T02:17:04;97043.59;;;7.74;77.81
8717;BME280;4395;48.554;8.820;2024-01-25T02:19:06;97050.16;;;7.77;77.93
8717;BME280;4395;48.554;8.820;2024-01-25T02:21:09;97059.94;;;7.81;77.91
8717;BME280;4395;48.554;8.820;2024-01-25T02:23:13;97061.53;;;7.82;77.98
8717;BME280;4395;48.554;8.820;2024-01-25T02:25:16;97049.75;;;7.80;78.04
8717;BME280;4395;48.554;8.820;2024-01-25T02:27:19;97046.56;;;7.78;78.27
8717;BME280;4395;48.554;8.820;2024-01-25T02:29:22;97041.38;;;7.78;78.44
8717;BME280;4395;48.554;8.820;2024-01-25T02:31:25;97042.78;;;7.80;78.35
8717;BME280;4395;48.554;8.820;2024-01-25T02:33:28;97053.16;;;7.80;77.84
8717;BME280;4395;48.554;8.820;2024-01-25T02:35:32;97049.97;;;7.78;77.77
8717;BME280;4395;48.554;8.820;2024-01-25T02:37:35;97052.16;;;7.75;77.70
8717;BME280;4395;48.554;8.820;2024-01-25T02:39:39;97043.81;;;7.73;77.61
8717;BME280;4395;48.554;8.820;2024-01-25T02:41:42;97048.81;;;7.68;77.80
8717;BME280;4395;48.554;8.820;2024-01-25T02:43:45;97051.22;;;7.69;77.84
8717;BME280;4395;48.554;8.820;2024-01-25T02:45:47;97057.41;;;7.68;77.93
8717;BME280;4395;48.554;8.820;2024-01-25T02:47:50;97050.81;;;7.72;78.02
8717;BME280;4395;48.554;8.820;2024-01-25T02:49:53;97055.78;;;7.67;78.06
8717;BME280;4395;48.554;8.820;2024-01-25T02:51:56;97055.59;;;7.69;78.16
8717;BME280;4395;48.554;8.820;2024-01-25T02:53:59;97046.81;;;7.70;78.41
8717;BME280;4395;48.554;8.820;2024-01-25T02:56:04;97044.44;;;7.68;78.71
8717;BME280;4395;48.554;8.820;2024-01-25T02:58:07;97031.06;;;7.65;78.65
8717;BME280;4395;48.554;8.820;2024-01-25T03:00:10;97041.06;;;7.61;78.95
8717;BME280;4395;48.554;8.820;2024-01-25T03:02:13;97048.84;;;7.61;79.00
8717;BME280;4395;48.554;8.820;2024-01-25T03:04:18;97040.28;;;7.61;79.25
8717;BME280;4395;48.554;8.820;2024-01-25T03:06:21;97043.66;;;7.61;79.37
8717;BME280;4395;48.554;8.820;2024-01-25T03:08:23;97031.28;;;7.63;79.41
8717;BME280;4395;48.554;8.820;2024-01-25T03:10:26;97039.06;;;7.63;79.35
8717;BME280;4395;48.554;8.820;2024-01-25T03:12:29;97039.69;;;7.58;79.47
8717;BME280;4395;48.554;8.820;2024-01-25T03:14:32;97037.09;;;7.58;79.95
8717;BME280;4395;48.554;8.820;2024-01-25T03:16:34;97035.13;;;7.54;80.22
8717;BME280;4395;48.554;8.820;2024-01-25T03:18:37;97044.28;;;7.56;80.77
8717;BME280;4395;48.554;8.820;2024-01-25T03:20:39;97033.38;;;7.48;81.08
8717;BME280;4395;48.554;8.820;2024-01-25T03:22:41;97041.34;;;7.46;81.52
8717;BME280;4395;48.554;8.820;2024-01-25T03:24:44;97045.31;;;7.42;81.64
8717;BME280;4395;48.554;8.820;2024-01-25T03:26:46;97049.31;;;7.38;81.98
8717;BME280;4395;48.554;8.820;2024-01-25T03:28:51;97052.09;;;7.37;82.29
8717;BME280;4395;48.554;8.820;2024-01-25T03:30:53;97059.72;;;7.32;82.54
8717;BME280;4395;48.554;8.820;2024-01-25T03:32:56;97057.72;;;7.34;82.57
8717;BME280;4395;48.554;8.820;2024-01-25T03:34:58;97054.53;;;7.32;82.88
8717;BME280;4395;48.554;8.820;2024-01-25T03:37:01;97055.53;;;7.31;83.28
8717;BME280;4395;48.554;8.820;2024-01-25T03:39:03;97057.13;;;7.25;83.27
8717;BME280;4395;48.554;8.820;2024-01-25T03:41:06;97054.97;;;7.22;83.62
8717;BME280;4395;48.554;8.820;2024-01-25T03:43:08;97059.94;;;7.23;83.64
8717;BME280;4395;48.554;8.820;2024-01-25T03:45:22;97055.56;;;7.24;83.40
8717;BME280;4395;48.554;8.820;2024-01-25T03:47:25;97058.91;;;7.24;83.43
8717;BME280;4395;48.554;8.820;2024-01-25T03:49:28;97052.75;;;7.26;83.05
8717;BME280;4395;48.554;8.820;2024-01-25T03:51:31;97048.16;;;7.28;82.90
8717;BME280;4395;48.554;8.820;2024-01-25T03:53:34;97049.75;;;7.29;82.76
8717;BME280;4395;48.554;8.820;2024-01-25T03:55:36;97059.13;;;7.30;82.37
8717;BME280;4395;48.554;8.820;2024-01-25T03:57:38;97063.09;;;7.26;82.06
8717;BME280;4395;48.554;8.820;2024-01-25T03:59:42;97068.13;;;7.20;81.87
8717;BME280;4395;48.554;8.820;2024-01-25T04:01:47;97064.53;;;7.21;81.48
8717;BME280;4395;48.554;8.820;2024-01-25T04:03:51;97069.31;;;7.18;81.55
8717;BME280;4395;48.554;8.820;2024-01-25T04:05:54;97069.31;;;7.18;81.37
8717;BME280;4395;48.554;8.820;2024-01-25T04:07:57;97075.09;;;7.13;81.21
8717;BME280;4395;48.554;8.820;2024-01-25T04:10:00;97071.31;;;7.09;81.37
8717;BME280;4395;48.554;8.820;2024-01-25T04:12:03;97085.88;;;7.10;81.06
8717;BME280;4395;48.554;8.820;2024-01-25T04:14:05;97076.09;;;7.12;80.59
8717;BME280;4395;48.554;8.820;2024-01-25T04:16:08;97090.44;;;7.08;80.68
8717;BME280;4395;48.554;8.820;2024-01-25T04:18:12;97092.03;;;7.09;80.53
8717;BME280;4395;48.554;8.820;2024-01-25T04:20:15;97101.41;;;7.10;80.60
8717;BME280;4395;48.554;8.820;2024-01-25T04:22:18;97114.16;;;7.12;80.24
8717;BME280;4395;48.554;8.820;2024-01-25T04:24:21;97108.75;;;7.13;79.03
8717;BME280;4395;48.554;8.820;2024-01-25T04:26:23;97110.16;;;7.16;78.75
8717;BME280;4395;48.554;8.820;2024-01-25T04:28:26;97111.16;;;7.15;77.72
8717;BME280;4395;48.554;8.820;2024-01-25T04:30:29;97120.13;;;7.12;77.32
8717;BME280;4395;48.554;8.820;2024-01-25T04:32:32;97127.91;;;7.12;76.71
8717;BME280;4395;48.554;8.820;2024-01-25T04:34:37;97128.09;;;7.11;76.79
8717;BME280;4395;48.554;8.820;2024-01-25T04:36:40;97126.31;;;7.11;76.66
8717;BME280;4395;48.554;8.820;2024-01-25T04:38:42;97127.91;;;7.12;76.54
8717;BME280;4395;48.554;8.820;2024-01-25T04:40:45;97126.88;;;7.13;77.07
8717;BME280;4395;48.554;8.820;2024-01-25T04:42:48;97117.53;;;7.12;77.00
8717;BME280;4395;48.554;8.820;2024-01-25T04:44:51;97125.09;;;7.07;76.83
8717;BME280;4395;48.554;8.820;2024-01-25T04:46:53;97124.72;;;7.04;76.88
8717;BME280;4395;48.554;8.820;2024-01-25T04:48:56;97124.72;;;6.97;76.93
8717;BME280;4395;48.554;8.820;2024-01-25T04:51:01;97139.44;;;6.90;76.98
8717;BME280;4395;48.554;8.820;2024-01-25T04:53:03;97142.44;;;6.87;77.20
8717;BME280;4395;48.554;8.820;2024-01-25T04:55:07;97147.81;;;6.85;77.12
8717;BME280;4395;48.554;8.820;2024-01-25T04:57:10;97147.81;;;6.79;76.93
8717;BME280;4395;48.554;8.820;2024-01-25T04:59:12;97149.41;;;6.73;76.98
8717;BME280;4395;48.554;8.820;2024-01-25T05:01:15;97142.22;;;6.69;77.35
8717;BME280;4395;48.554;8.820;2024-01-25T05:03:18;97142.81;;;6.64;77.26
8717;BME280;4395;48.554;8.820;2024-01-25T05:05:21;97142.44;;;6.61;77.44
8717;BME280;4395;48.554;8.820;2024-01-25T05:07:26;97156.34;;;6.60;77.63
8717;BME280;4395;48.554;8.820;2024-01-25T05:09:31;97152.16;;;6.59;77.59
8717;BME280;4395;48.554;8.820;2024-01-25T05:11:37;97157.34;;;6.59;77.75
8717;BME280;4395;48.554;8.820;2024-01-25T05:13:40;97158.34;;;6.58;77.40
8717;BME280;4395;48.554;8.820;2024-01-25T05:15:43;97161.91;;;6.57;77.22
8717;BME280;4395;48.554;8.820;2024-01-25T05:17:46;97154.34;;;6.48;77.19
8717;BME280;4395;48.554;8.820;2024-01-25T05:19:48;97144.19;;;6.47;77.35
8717;BME280;4395;48.554;8.820;2024-01-25T05:21:51;97143.41;;;6.46;77.68
8717;BME280;4395;48.554;8.820;2024-01-25T05:23:55;97146.97;;;6.45;77.60
8717;BME280;4395;48.554;8.820;2024-01-25T05:25:57;97147.97;;;6.44;77.46
8717;BME280;4395;48.554;8.820;2024-01-25T05:28:00;97143.78;;;6.43;77.38
8717;BME280;4395;48.554;8.820;2024-01-25T05:30:05;97150.94;;;6.41;77.41
8717;BME280;4395;48.554;8.820;2024-01-25T05:32:06;97162.09;;;6.42;77.26
8717;BME280;4395;48.554;8.820;2024-01-25T05:34:09;97157.31;;;6.39;77.36
8717;BME280;4395;48.554;8.820;2024-01-25T05:36:12;97150.94;;;6.41;77.37
8717;BME280;4395;48.554;8.820;2024-01-25T05:38:15;97156.34;;;6.46;77.11
8717;BME280;4395;48.554;8.820;2024-01-25T05:40:19;97159.31;;;6.43;77.47
8717;BME280;4395;48.554;8.820;2024-01-25T05:42:22;97151.75;;;6.48;77.25
8717;BME280;4395;48.554;8.820;2024-01-25T05:44:25;97150.16;;;6.47;77.05
8717;BME280;4395;48.554;8.820;2024-01-25T05:46:28;97149.38;;;6.54;77.35
8717;BME280;4395;48.554;8.820;2024-01-25T05:48:31;97157.13;;;6.54;77.22
8717;BME280;4395;48.554;8.820;2024-01-25T05:50:34;97168.31;;;6.61;76.93
8717;BME280;4395;48.554;8.820;2024-01-25T05:52:37;97161.72;;;6.52;77.09
8717;BME280;4395;48.554;8.820;2024-01-25T05:54:40;97164.69;;;6.48;77.01
8717;BME280;4395;48.554;8.820;2024-01-25T05:56:44;97165.69;;;6.47;77.31
8717;BME280;4395;48.554;8.820;2024-01-25T05:58:46;97170.88;;;6.47;77.45
8717;BME280;4395;48.554;8.820;2024-01-25T06:00:50;97167.91;;;6.50;77.59
8717;BME280;4395;48.554;8.820;2024-01-25T06:02:52;97168.88;;;6.49;77.60
8717;BME280;4395;48.554;8.820;2024-01-25T06:04:55;97159.72;;;6.54;77.49
8717;BME280;4395;48.554;8.820;2024-01-25T06:07:00;97166.91;;;6.52;77.43
8717;BME280;4395;48.554;8.820;2024-01-25T06:09:03;97170.25;;;6.52;77.40
8717;BME280;4395;48.554;8.820;2024-01-25T06:11:14;97174.06;;;6.49;77.46
8717;BME280;4395;48.554;8.820;2024-01-25T06:13:21;97172.06;;;6.52;77.45
8717;BME280;4395;48.554;8.820;2024-01-25T06:15:24;97177.03;;;6.46;77.29
8717;BME280;4395;48.554;8.820;2024-01-25T06:17:26;97182.81;;;6.48;77.31
8717;BME280;4395;48.554;8.820;2024-01-25T06:19:28;97181.63;;;6.51;76.89
8717;BME280;4395;48.554;8.820;2024-01-25T06:21:32;97172.47;;;6.48;76.93
8717;BME280;4395;48.554;8.820;2024-01-25T06:23:35;97172.47;;;6.48;76.42
8717;BME280;4395;48.554;8.820;2024-01-25T06:25:38;97169.66;;;6.43;76.25
8717;BME280;4395;48.554;8.820;2024-01-25T06:27:41;97165.28;;;6.37;76.57
8717;BME280;4395;48.554;8.820;2024-01-25T06:29:45;97167.63;;;6.32;76.54
8717;BME280;4395;48.554;8.820;2024-01-25T06:31:48;97166.41;;;6.28;76.61
8717;BME280;4395;48.554;8.820;2024-01-25T06:33:51;97168.00;;;6.23;76.62
8717;BME280;4395;48.554;8.820;2024-01-25T06:35:56;97160.03;;;6.18;76.90
8717;BME280;4395;48.554;8.820;2024-01-25T06:37:59;97167.78;;;6.11;77.05
8717;BME280;4395;48.554;8.820;2024-01-25T06:40:02;97171.13;;;6.05;77.25
8717;BME280;4395;48.554;8.820;2024-01-25T06:42:06;97171.91;;;5.99;77.50
8717;BME280;4395;48.554;8.820;2024-01-25T06:44:09;97176.69;;;6.02;77.29
8717;BME280;4395;48.554;8.820;2024-01-25T06:46:13;97173.50;;;6.00;77.55
8717;BME280;4395;48.554;8.820;2024-01-25T06:48:15;97186.41;;;6.00;77.62
8717;BME280;4395;48.554;8.820;2024-01-25T06:50:19;97183.84;;;6.00;77.78
8717;BME280;4395;48.554;8.820;2024-01-25T06:52:22;97187.41;;;6.05;77.90
8717;BME280;4395;48.554;8.820;2024-01-25T06:54:26;97181.88;;;6.02;78.05
8717;BME280;4395;48.554;8.820;2024-01-25T06:56:29;97183.25;;;6.04;77.82
8717;BME280;4395;48.554;8.820;2024-01-25T06:58:32;97183.06;;;6.06;77.74
8717;BME280;4395;48.554;8.820;2024-01-25T07:00:35;97179.47;;;6.07;77.73
8717;BME280;4395;48.554;8.820;2024-01-25T07:02:41;97190.59;;;6.01;77.67
8717;BME280;4395;48.554;8.820;2024-01-25T07:04:45;97177.88;;;6.06;76.85
8717;BME280;4395;48.554;8.820;2024-01-25T07:06:48;97176.69;;;6.02;77.22
8717;BME280;4395;48.554;8.820;2024-01-25T07:08:50;97184.63;;;6.00;77.44
8717;BME280;4395;48.554;8.820;2024-01-25T07:10:54;97192.97;;;5.96;77.66
8717;BME280;4395;48.554;8.820;2024-01-25T07:12:57;97200.50;;;5.91;77.59
8717;BME280;4395;48.554;8.820;2024-01-25T07:15:00;97207.25;;;5.92;77.44
8717;BME280;4395;48.554;8.820;2024-01-25T07:17:03;97208.03;;;5.92;77.49
8717;BME280;4395;48.554;8.820;2024-01-25T07:19:08;97200.09;;;5.94;77.70
8717;BME280;4395;48.554;8.820;2024-01-25T07:21:10;97201.09;;;5.93;77.77
8717;BME280;4395;48.554;8.820;2024-01-25T07:23:12;97214.41;;;5.90;77.77
8717;BME280;4395;48.554;8.820;2024-01-25T07:25:15;97213.44;;;5.91;77.98
8717;BME280;4395;48.554;8.820;2024-01-25T07:27:18;97218.19;;;5.94;78.10
8717;BME280;4395;48.554;8.820;2024-01-25T07:29:20;97219.00;;;5.94;78.18
8717;BME280;4395;48.554;8.820;2024-01-25T07:31:23;97223.78;;;5.97;78.02
8717;BME280;4395;48.554;8.820;2024-01-25T07:33:25;97222.63;;;6.00;78.22
8717;BME280;4395;48.554;8.820;2024-01-25T07:35:29;97227.00;;;5.99;78.25
8717;BME280;4395;48.554;8.820;2024-01-25T07:37:32;97236.53;;;5.99;78.17
8717;BME280;4395;48.554;8.820;2024-01-25T07:39:35;97230.38;;;6.00;78.18
8717;BME280;4395;48.554;8.820;2024-01-25T07:41:38;97228.41;;;6.02;78.13
8717;BME280;4395;48.554;8.820;2024-01-25T07:43:41;97217.06;;;6.03;78.19
8717;BME280;4395;48.554;8.820;2024-01-25T07:45:44;97209.31;;;6.03;78.00
8717;BME280;4395;48.554;8.820;2024-01-25T07:47:46;97201.13;;;5.99;78.19
8717;BME280;4395;48.554;8.820;2024-01-25T07:49:54;97203.53;;;6.01;78.25
8717;BME280;4395;48.554;8.820;2024-01-25T07:51:59;97198.94;;;5.96;77.31
8717;BME280;4395;48.554;8.820;2024-01-25T07:54:02;97196.50;;;5.88;77.75
8717;BME280;4395;48.554;8.820;2024-01-25T07:56:06;97205.41;;;5.86;77.95
8717;BME280;4395;48.554;8.820;2024-01-25T07:58:09;97214.16;;;5.85;78.10
8717;BME280;4395;48.554;8.820;2024-01-25T08:00:13;97219.09;;;5.79;77.95
8717;BME280;4395;48.554;8.820;2024-01-25T08:02:16;97215.50;;;5.80;78.27
8717;BME280;4395;48.554;8.820;2024-01-25T08:04:22;97215.31;;;5.82;78.55
8717;BME280;4395;48.554;8.820;2024-01-25T08:06:25;97224.13;;;5.88;78.61
8717;BME280;4395;48.554;8.820;2024-01-25T08:08:29;97229.16;;;5.96;78.71
8717;BME280;4395;48.554;8.820;2024-01-25T08:10:32;97218.06;;;6.02;78.77
8717;BME280;4395;48.554;8.820;2024-01-25T08:12:35;97218.88;;;6.09;78.57
8717;BME280;4395;48.554;8.820;2024-01-25T08:14:48;97219.31;;;6.19;78.06
8717;BME280;4395;48.554;8.820;2024-01-25T08:16:51;97209.75;;;6.20;77.98
8717;BME280;4395;48.554;8.820;2024-01-25T08:18:54;97208.16;;;6.19;78.06
8717;BME280;4395;48.554;8.820;2024-01-25T08:20:57;97203.03;;;6.25;78.01
8717;BME280;4395;48.554;8.820;2024-01-25T08:22:59;97199.06;;;6.29;78.09
8717;BME280;4395;48.554;8.820;2024-01-25T08:25:04;97196.31;;;6.37;77.80
8717;BME280;4395;48.554;8.820;2024-01-25T08:27:07;97200.31;;;6.40;77.68
8717;BME280;4395;48.554;8.820;2024-01-25T08:29:09;97203.28;;;6.43;77.65
8717;BME280;4395;48.554;8.820;2024-01-25T08:31:12;97201.91;;;6.47;77.65
8717;BME280;4395;48.554;8.820;2024-01-25T08:33:15;97196.34;;;6.50;77.74
8717;BME280;4395;48.554;8.820;2024-01-25T08:35:18;97198.34;;;6.55;77.56
8717;BME280;4395;48.554;8.820;2024-01-25T08:37:20;97196.97;;;6.59;77.26
8717;BME280;4395;48.554;8.820;2024-01-25T08:39:23;97200.34;;;6.60;77.36
8717;BME280;4395;48.554;8.820;2024-01-25T08:41:27;97196.56;;;6.62;77.72
8717;BME280;4395;48.554;8.820;2024-01-25T08:43:33;97191.78;;;6.66;77.70
8717;BME280;4395;48.554;8.820;2024-01-25T08:45:36;97194.59;;;6.71;77.74
8717;BME280;4395;48.554;8.820;2024-01-25T08:47:39;97201.97;;;6.74;77.61
8717;BME280;4395;48.554;8.820;2024-01-25T08:49:41;97205.56;;;6.79;77.46
8717;BME280;4395;48.554;8.820;2024-01-25T08:51:45;97207.75;;;6.82;77.43
8717;BME280;4395;48.554;8.820;2024-01-25T08:53:47;97202.00;;;6.87;77.06
8717;BME280;4395;48.554;8.820;2024-01-25T08:55:52;97202.38;;;6.91;77.28
8717;BME280;4395;48.554;8.820;2024-01-25T08:57:55;97201.41;;;6.98;77.25
8717;BME280;4395;48.554;8.820;2024-01-25T08:59:58;97209.97;;;7.05;77.13
8717;BME280;4395;48.554;8.820;2024-01-25T09:02:02;97206.59;;;7.11;76.89
8717;BME280;4395;48.554;8.820;2024-01-25T09:04:06;97215.16;;;7.18;77.11
8717;BME280;4395;48.554;8.820;2024-01-25T09:06:09;97215.94;;;7.26;76.55
8717;BME280;4395;48.554;8.820;2024-01-25T09:08:13;97209.97;;;7.32;76.49
8717;BME280;4395;48.554;8.820;2024-01-25T09:10:16;97216.75;;;7.39;75.66
8717;BME280;4395;48.554;8.820;2024-01-25T09:12:19;97221.94;;;7.46;76.09
8717;BME280;4395;48.554;8.820;2024-01-25T09:14:23;97230.09;;;7.56;75.82
8717;BME280;4395;48.554;8.820;2024-01-25T09:16:25;97227.50;;;7.69;75.54
8717;BME280;4395;48.554;8.820;2024-01-25T09:18:28;97236.25;;;7.81;75.28
8717;BME280;4395;48.554;8.820;2024-01-25T09:20:31;97239.81;;;7.93;75.02
8717;BME280;4395;48.554;8.820;2024-01-25T09:22:34;97245.75;;;8.07;74.72
8717;BME280;4395;48.554;8.820;2024-01-25T09:24:37;97245.13;;;8.12;74.06
8717;BME280;4395;48.554;8.820;2024-01-25T09:26:42;97238.56;;;8.16;73.63
8717;BME280;4395;48.554;8.820;2024-01-25T09:28:45;97238.09;;;8.25;73.70
8717;BME280;4395;48.554;8.820;2024-01-25T09:30:49;97235.53;;;8.32;73.34
8717;BME280;4395;48.554;8.820;2024-01-25T09:32:53;97237.09;;;8.40;72.86
8717;BME280;4395;48.554;8.820;2024-01-25T09:34:56;97234.09;;;8.43;72.63
8717;BME280;4395;48.554;8.820;2024-01-25T09:36:59;97222.31;;;8.40;72.61
8717;BME280;4395;48.554;8.820;2024-01-25T09:39:01;97229.13;;;8.35;72.48
8717;BME280;4395;48.554;8.820;2024-01-25T09:41:05;97235.69;;;8.37;73.03
8717;BME280;4395;48.554;8.820;2024-01-25T09:43:09;97235.72;;;8.30;72.14
8717;BME280;4395;48.554;8.820;2024-01-25T09:45:16;97238.56;;;8.16;72.51
8717;BME280;4395;48.554;8.820;2024-01-25T09:47:21;97227.53;;;8.27;73.18
8717;BME280;4395;48.554;8.820;2024-01-25T09:49:25;97233.69;;;8.39;72.62
8717;BME280;4395;48.554;8.820;2024-01-25T09:51:29;97238.69;;;8.34;71.31
8717;BME280;4395;48.554;8.820;2024-01-25T09:53:34;97234.91;;;8.30;71.68
8717;BME280;4395;48.554;8.820;2024-01-25T09:55:40;97229.34;;;8.33;71.56
8717;BME280;4395;48.554;8.820;2024-01-25T09:57:45;97236.28;;;8.39;71.26
8717;BME280;4395;48.554;8.820;2024-01-25T09:59:49;97241.69;;;8.38;70.29
8717;BME280;4395;48.554;8.820;2024-01-25T10:01:53;97242.84;;;8.48;70.90
8717;BME280;4395;48.554;8.820;2024-01-25T10:03:57;97252.75;;;8.64;69.49
8717;BME280;4395;48.554;8.820;2024-01-25T10:05:59;97243.63;;;8.55;69.40
8717;BME280;4395;48.554;8.820;2024-01-25T10:08:12;97256.00;;;8.53;70.43
8717;BME280;4395;48.554;8.820;2024-01-25T10:10:16;97256.81;;;8.54;70.69
8717;BME280;4395;48.554;8.820;2024-01-25T10:12:19;97256.41;;;8.50;70.02
8717;BME280;4395;48.554;8.820;2024-01-25T10:14:21;97251.97;;;8.57;70.23
8717;BME280;4395;48.554;8.820;2024-01-25T10:16:24;97251.38;;;8.62;69.63
8717;BME280;4395;48.554;8.820;2024-01-25T10:18:27;97251.97;;;8.64;69.66
8717;BME280;4395;48.554;8.820;2024-01-25T10:20:33;97256.75;;;8.60;69.55
8717;BME280;4395;48.554;8.820;2024-01-25T10:22:37;97251.09;;;8.77;70.64
8717;BME280;4395;48.554;8.820;2024-01-25T10:24:41;97245.78;;;8.96;68.87
8717;BME280;4395;48.554;8.820;2024-01-25T10:26:45;97245.50;;;9.11;68.74
8717;BME280;4395;48.554;8.820;2024-01-25T10:28:52;97235.59;;;9.26;68.96
8717;BME280;4395;48.554;8.820;2024-01-25T10:31:03;97238.78;;;9.53;67.92
8717;BME280;4395;48.554;8.820;2024-01-25T10:33:09;97233.22;;;9.68;66.69
8717;BME280;4395;48.554;8.820;2024-01-25T10:35:12;97245.06;;;9.89;67.12
8717;BME280;4395;48.554;8.820;2024-01-25T10:37:22;97240.06;;;10.05;65.89
8717;BME280;4395;48.554;8.820;2024-01-25T10:39:26;97245.09;;;10.25;64.08
8717;BME280;4395;48.554;8.820;2024-01-25T10:41:30;97240.81;;;10.31;62.94
8717;BME280;4395;48.554;8.820;2024-01-25T10:43:33;97239.50;;;10.40;63.86
8717;BME280;4395;48.554;8.820;2024-01-25T10:45:37;97229.66;;;10.42;62.78
8717;BME280;4395;48.554;8.820;2024-01-25T10:47:40;97223.31;;;10.38;62.06
8717;BME280;4395;48.554;8.820;2024-01-25T10:49:46;97225.19;;;10.31;62.22
8717;BME280;4395;48.554;8.820;2024-01-25T10:51:49;97220.19;;;10.29;61.51
8717;BME280;4395;48.554;8.820;2024-01-25T10:53:54;97223.88;;;10.40;61.62
8717;BME280;4395;48.554;8.820;2024-01-25T10:56:00;97225.03;;;10.62;61.67
8717;BME280;4395;48.554;8.820;2024-01-25T10:58:06;97220.75;;;10.79;61.12
8717;BME280;4395;48.554;8.820;2024-01-25T11:00:11;97221.50;;;10.87;59.83
8717;BME280;4395;48.554;8.820;2024-01-25T11:02:17;97219.44;;;10.89;59.63
8717;BME280;4395;48.554;8.820;2024-01-25T11:04:21;97205.53;;;10.95;59.06
8717;BME280;4395;48.554;8.820;2024-01-25T11:06:27;97212.25;;;11.14;59.04
8717;BME280;4395;48.554;8.820;2024-01-25T11:08:30;97216.00;;;11.18;58.30
8717;BME280;4395;48.554;8.820;2024-01-25T11:10:35;97213.84;;;11.15;58.43
8717;BME280;4395;48.554;8.820;2024-01-25T11:12:48;97205.13;;;11.21;58.64
8717;BME280;4395;48.554;8.820;2024-01-25T11:14:54;97213.75;;;11.22;58.12
8717;BME280;4395;48.554;8.820;2024-01-25T11:16:57;97201.00;;;11.02;58.47
8717;BME280;4395;48.554;8.820;2024-01-25T11:19:00;97199.97;;;11.03;59.88
8717;BME280;4395;48.554;8.820;2024-01-25T11:21:07;97190.38;;;11.15;58.85